createdAt,value
2019-04-21T00:01:22.581Z,10.40
2019-04-21T00:03:57.128Z,10.20
2019-04-21T00:06:48.369Z,10.10
2019-04-21T00:09:21.140Z,10.10
2019-04-21T00:11:48.331Z,10.10
2019-04-21T00:14:09.021Z,10.20
2019-04-21T00:16:40.656Z,10.10
2019-04-21T00:19:26.103Z,10.00
2019-04-21T00:22:01.680Z,9.90
2019-04-21T00:24:39.078Z,9.90
2019-04-21T00:27:11.143Z,9.90
2019-04-21T00:29:47.906Z,9.90
2019-04-21T00:32:13.630Z,9.90
2019-04-21T00:34:32.168Z,10.00
2019-04-21T00:37:14.610Z,10.10
2019-04-21T00:40:02.183Z,10.10
2019-04-21T00:42:22.768Z,10.00
2019-04-21T00:44:56.674Z,10.10
2019-04-21T00:47:31.714Z,10.00
2019-04-21T00:50:03.631Z,10.00
2019-04-21T00:53:05.666Z,10.00
2019-04-21T00:55:33.935Z,10.00
2019-04-21T00:58:03.814Z,10.10
2019-04-21T01:00:33.208Z,10.10
2019-04-21T01:03:13.053Z,10.00
2019-04-21T01:05:42.796Z,10.10
2019-04-21T01:08:10.130Z,10.10
2019-04-21T01:10:33.184Z,10.20
2019-04-21T01:13:18.691Z,10.10
2019-04-21T01:15:51.553Z,10.10
2019-04-21T01:18:16.711Z,10.10
2019-04-21T01:20:25.227Z,10.20
2019-04-21T01:22:55.849Z,10.10
2019-04-21T01:25:34.851Z,10.10
2019-04-21T01:28:13.582Z,10.00
2019-04-21T01:30:53.553Z,10.10
2019-04-21T01:33:27.769Z,10.10
2019-04-21T01:35:55.288Z,10.10
2019-04-21T01:38:32.017Z,10.10
2019-04-21T01:41:03.818Z,10.10
2019-04-21T01:43:27.748Z,10.20
2019-04-21T01:45:58.954Z,10.20
2019-04-21T01:48:24.125Z,10.10
2019-04-21T01:51:01.559Z,10.00
2019-04-21T01:53:45.725Z,10.10
2019-04-21T01:56:43.213Z,10.00
2019-04-21T01:59:01.530Z,10.00
2019-04-21T02:01:39.229Z,10.00
2019-04-21T02:04:24.268Z,10.10
2019-04-21T02:06:50.469Z,10.10
2019-04-21T02:09:15.251Z,10.10
2019-04-21T02:11:55.080Z,10.00
2019-04-21T02:16:54.081Z,9.80
2019-04-21T02:19:27.873Z,9.80
2019-04-21T02:21:51.358Z,9.80
2019-04-21T02:24:37.363Z,9.80
2019-04-21T02:27:02.714Z,9.90
2019-04-21T02:29:32.968Z,9.80
2019-04-21T02:34:52.401Z,9.70
2019-04-21T02:40:00.361Z,9.50
2019-04-21T02:42:18.465Z,9.40
2019-04-21T02:47:43.147Z,9.50
2019-04-21T02:55:11.610Z,9.50
2019-04-21T02:57:32.166Z,9.50
2019-04-21T03:00:06.774Z,9.50
2019-04-21T03:03:26.150Z,9.50
2019-04-21T03:13:50.013Z,9.10
2019-04-21T03:16:23.545Z,9.00
2019-04-21T03:18:48.294Z,8.90
2019-04-21T03:23:56.206Z,8.80
2019-04-21T03:26:28.341Z,8.70
2019-04-21T03:29:12.109Z,8.70
2019-04-21T03:32:05.780Z,8.70
2019-04-21T03:37:01.974Z,8.80
2019-04-21T03:38:57.032Z,8.80
2019-04-21T03:49:10.562Z,8.90
2019-04-21T03:51:37.726Z,8.80
2019-04-21T03:54:07.900Z,8.70
2019-04-21T04:07:43.766Z,7.90
2019-04-21T04:10:08.360Z,7.90
2019-04-21T04:12:44.327Z,7.90
2019-04-21T04:15:16.151Z,8.00
2019-04-21T04:17:42.090Z,8.00
2019-04-21T04:20:26.209Z,8.00
2019-04-21T04:22:56.295Z,8.00
2019-04-21T04:25:20.964Z,8.10
2019-04-21T04:27:59.477Z,8.10
2019-04-21T04:30:23.674Z,8.00
2019-04-21T04:32:46.826Z,7.90
2019-04-21T04:37:59.196Z,8.00
2019-04-21T04:40:31.534Z,8.00
2019-04-21T04:43:11.762Z,8.10
2019-04-21T04:45:48.258Z,8.10
2019-04-21T04:53:26.721Z,8.10
2019-04-21T04:55:46.999Z,8.10
2019-04-21T04:58:23.451Z,8.00
2019-04-21T05:01:08.972Z,7.90
2019-04-21T05:03:34.665Z,7.90
2019-04-21T05:06:40.749Z,7.80
2019-04-21T05:14:04.079Z,7.90
2019-04-21T05:19:10.705Z,7.90
2019-04-21T05:21:48.726Z,8.00
2019-04-21T05:23:52.551Z,8.10
2019-04-21T05:26:18.883Z,8.10
2019-04-21T05:28:47.536Z,8.30
2019-04-21T05:31:56.935Z,8.40
2019-04-21T05:34:27.705Z,8.50
2019-04-21T05:37:25.787Z,8.60
2019-04-21T05:40:00.435Z,8.70
2019-04-21T05:42:35.256Z,8.80
2019-04-21T05:45:31.264Z,8.80
2019-04-21T05:50:21.942Z,8.90
2019-04-21T05:52:52.000Z,9.00
2019-04-21T05:58:02.527Z,9.00
2019-04-21T06:00:54.810Z,9.10
2019-04-21T06:03:09.971Z,9.10
2019-04-21T06:05:47.353Z,9.20
2019-04-21T06:08:13.205Z,9.30
2019-04-21T06:10:47.421Z,9.30
2019-04-21T06:13:19.817Z,9.40
2019-04-21T06:15:50.013Z,9.40
2019-04-21T06:18:22.339Z,9.50
2019-04-21T06:20:46.769Z,9.50
2019-04-21T06:23:21.308Z,9.70
2019-04-21T06:28:30.714Z,10.10
2019-04-21T06:31:05.543Z,10.40
2019-04-21T06:33:32.287Z,10.60
2019-04-21T06:36:37.280Z,10.80
2019-04-21T06:39:06.414Z,10.90
2019-04-21T06:44:08.241Z,11.10
2019-04-21T06:46:37.451Z,11.20
2019-04-21T06:49:03.121Z,11.30
2019-04-21T06:51:35.781Z,11.30
2019-04-21T06:54:09.551Z,11.50
2019-04-21T06:56:49.624Z,11.60
2019-04-21T06:59:09.683Z,11.70
2019-04-21T07:04:33.250Z,11.80
2019-04-21T07:06:52.114Z,11.90
2019-04-21T07:09:21.000Z,12.00
2019-04-21T07:11:49.099Z,12.10
2019-04-21T07:14:30.016Z,12.10
2019-04-21T07:16:57.414Z,12.10
2019-04-21T07:19:33.316Z,12.10
2019-04-21T07:21:57.363Z,12.20
2019-04-21T07:24:31.978Z,12.20
2019-04-21T07:27:04.258Z,12.20
2019-04-21T07:29:34.810Z,12.40
2019-04-21T07:32:06.563Z,12.40
2019-04-21T07:34:38.431Z,12.50
2019-04-21T07:37:20.351Z,12.60
2019-04-21T07:39:32.556Z,12.70
2019-04-21T07:42:06.500Z,12.80
2019-04-21T07:44:35.054Z,12.80
2019-04-21T07:47:09.754Z,12.70
2019-04-21T07:49:57.434Z,12.70
2019-04-21T07:52:49.080Z,12.90
2019-04-21T07:57:47.888Z,12.90
2019-04-21T08:00:29.309Z,13.00
2019-04-21T08:02:54.045Z,13.00
2019-04-21T08:05:24.876Z,13.00
2019-04-21T08:07:58.022Z,13.10
2019-04-21T08:10:27.339Z,13.10
2019-04-21T08:13:00.116Z,13.20
2019-04-21T08:15:37.539Z,13.20
2019-04-21T08:18:10.186Z,13.30
2019-04-21T08:20:38.718Z,13.40
2019-04-21T08:23:13.502Z,13.50
2019-04-21T08:25:50.962Z,13.50
2019-04-21T08:28:17.856Z,13.50
2019-04-21T08:30:44.438Z,13.60
2019-04-21T08:33:30.600Z,13.60
2019-04-21T08:38:24.715Z,13.70
2019-04-21T08:40:55.864Z,13.70
2019-04-21T08:43:37.037Z,13.90
2019-04-21T08:45:57.199Z,13.90
2019-04-21T08:48:29.097Z,14.10
2019-04-21T08:51:18.508Z,14.20
2019-04-21T08:53:36.315Z,14.10
2019-04-21T08:56:41.326Z,14.10
2019-04-21T08:59:31.360Z,14.30
2019-04-21T09:02:23.571Z,14.50
2019-04-21T09:04:54.173Z,14.60
2019-04-21T09:09:57.430Z,14.80
2019-04-21T09:12:32.776Z,14.80
2019-04-21T09:15:01.751Z,14.80
2019-04-21T09:17:25.049Z,14.80
2019-04-21T09:22:37.631Z,15.00
2019-04-21T09:25:04.663Z,15.20
2019-04-21T09:27:36.783Z,15.20
2019-04-21T09:29:55.987Z,15.30
2019-04-21T09:32:26.771Z,15.40
2019-04-21T09:34:55.667Z,15.50
2019-04-21T09:37:37.947Z,15.60
2019-04-21T09:39:57.874Z,15.60
2019-04-21T09:42:37.315Z,15.80
2019-04-21T09:45:04.467Z,15.80
2019-04-21T09:47:41.790Z,15.90
2019-04-21T09:50:06.272Z,16.00
2019-04-21T09:52:44.268Z,16.20
2019-04-21T09:55:14.276Z,16.30
2019-04-21T09:57:47.760Z,16.20
2019-04-21T10:00:15.061Z,16.30
2019-04-21T10:02:54.486Z,16.40
2019-04-21T10:05:14.741Z,16.50
2019-04-21T10:07:44.744Z,16.50
2019-04-21T10:10:15.000Z,16.60
2019-04-21T10:12:45.490Z,16.70
2019-04-21T10:15:16.578Z,16.70
2019-04-21T10:17:50.415Z,16.80
2019-04-21T10:20:20.410Z,16.90
2019-04-21T10:22:50.918Z,16.90
2019-04-21T10:25:20.960Z,17.00
2019-04-21T10:27:51.002Z,17.20
2019-04-21T10:30:22.399Z,17.40
2019-04-21T10:32:52.625Z,17.40
2019-04-21T10:35:24.326Z,17.50
2019-04-21T10:38:09.045Z,17.50
2019-04-21T10:40:26.031Z,17.60
2019-04-21T10:42:56.371Z,17.60
2019-04-21T10:45:26.656Z,17.80
2019-04-21T10:47:56.916Z,17.80
2019-04-21T10:50:26.959Z,17.90
2019-04-21T10:53:07.013Z,18.00
2019-04-21T10:55:54.277Z,18.00
2019-04-21T10:58:22.580Z,18.10
2019-04-21T11:00:57.923Z,18.10
2019-04-21T11:03:48.898Z,18.30
2019-04-21T11:06:21.014Z,18.20
2019-04-21T11:08:55.449Z,18.30
2019-04-21T11:11:23.861Z,18.20
2019-04-21T11:13:54.869Z,18.30
2019-04-21T11:16:24.937Z,18.40
2019-04-21T11:18:55.947Z,18.40
2019-04-21T11:21:27.118Z,18.50
2019-04-21T11:23:58.388Z,18.60
2019-04-21T11:26:29.764Z,18.70
2019-04-21T11:29:01.087Z,18.80
2019-04-21T11:31:31.330Z,19.00
2019-04-21T11:34:01.363Z,18.90
2019-04-21T11:36:31.443Z,19.00
2019-04-21T11:39:35.235Z,19.00
2019-04-21T11:41:54.127Z,19.10
2019-04-21T11:44:24.767Z,19.10
2019-04-21T11:46:56.251Z,19.20
2019-04-21T11:49:30.217Z,19.30
2019-04-21T11:51:58.770Z,19.30
2019-04-21T11:54:28.870Z,19.30
2019-04-21T11:57:01.771Z,19.40
2019-04-21T11:59:30.839Z,19.50
2019-04-21T12:02:01.575Z,19.50
2019-04-21T12:04:31.793Z,19.50
2019-04-21T12:07:01.918Z,19.70
2019-04-21T12:09:33.204Z,19.70
2019-04-21T12:12:05.259Z,19.90
2019-04-21T12:14:36.380Z,19.90
2019-04-21T12:17:07.887Z,20.00
2019-04-21T12:19:38.780Z,20.00
2019-04-21T12:22:18.182Z,20.10
2019-04-21T12:24:43.013Z,20.20
2019-04-21T12:27:14.028Z,20.30
2019-04-21T12:29:46.038Z,20.40
2019-04-21T12:32:38.047Z,20.50
2019-04-21T12:35:10.142Z,20.40
2019-04-21T12:37:42.809Z,20.30
2019-04-21T12:40:14.743Z,20.30
2019-04-21T12:42:45.564Z,20.40
2019-04-21T12:45:22.002Z,20.50
2019-04-21T12:47:57.843Z,20.50
2019-04-21T12:50:30.023Z,20.60
2019-04-21T12:53:00.260Z,20.60
2019-04-21T12:55:35.038Z,20.70
2019-04-21T12:58:01.948Z,20.80
2019-04-21T13:00:33.359Z,20.70
2019-04-21T13:03:03.697Z,20.80
2019-04-21T13:05:35.773Z,20.90
2019-04-21T13:08:07.079Z,20.90
2019-04-21T13:10:38.109Z,21.00
2019-04-21T13:13:08.294Z,21.10
2019-04-21T13:15:39.672Z,21.10
2019-04-21T13:18:10.099Z,21.10
2019-04-21T13:20:40.267Z,21.10
2019-04-21T13:23:10.345Z,21.20
2019-04-21T13:25:41.583Z,21.20
2019-04-21T13:28:12.633Z,21.30
2019-04-21T13:30:42.675Z,21.30
2019-04-21T13:33:13.410Z,21.40
2019-04-21T13:35:48.850Z,21.40
2019-04-21T13:38:31.026Z,21.50
2019-04-21T13:41:24.468Z,21.50
2019-04-21T13:43:41.350Z,21.60
2019-04-21T13:46:12.071Z,21.60
2019-04-21T13:48:44.428Z,21.70
2019-04-21T13:51:17.629Z,21.70
2019-04-21T13:53:51.361Z,21.80
2019-04-21T13:56:26.602Z,21.90
2019-04-21T13:58:58.101Z,22.00
2019-04-21T14:01:29.700Z,22.10
2019-04-21T14:03:59.820Z,22.00
2019-04-21T14:06:30.171Z,22.10
2019-04-21T14:09:01.151Z,22.00
2019-04-21T14:11:31.438Z,22.00
2019-04-21T14:14:02.559Z,22.10
2019-04-21T14:16:33.926Z,22.10
2019-04-21T14:19:05.540Z,22.00
2019-04-21T14:21:36.965Z,22.20
2019-04-21T14:24:07.195Z,22.30
2019-04-21T14:26:38.437Z,22.40
2019-04-21T14:29:11.062Z,22.40
2019-04-21T14:31:40.285Z,22.50
2019-04-21T14:34:10.371Z,22.60
2019-04-21T14:36:41.006Z,22.60
2019-04-21T14:39:12.422Z,22.60
2019-04-21T14:41:42.493Z,22.70
2019-04-21T14:44:13.179Z,22.60
2019-04-21T14:46:51.315Z,22.60
2019-04-21T14:49:37.269Z,22.70
2019-04-21T14:52:28.810Z,22.80
2019-04-21T14:55:20.831Z,22.60
2019-04-21T14:57:51.548Z,22.60
2019-04-21T15:00:22.902Z,22.60
2019-04-21T15:02:53.774Z,22.50
2019-04-21T15:05:25.136Z,22.40
2019-04-21T15:07:55.287Z,22.40
2019-04-21T15:10:28.610Z,22.60
2019-04-21T15:12:57.275Z,22.70
2019-04-21T15:15:27.847Z,22.70
2019-04-21T15:17:58.040Z,22.80
2019-04-21T15:20:28.684Z,23.00
2019-04-21T15:23:00.009Z,23.20
2019-04-21T15:25:30.222Z,23.20
2019-04-21T15:28:01.178Z,23.30
2019-04-21T15:30:32.456Z,23.40
2019-04-21T15:33:02.644Z,23.40
2019-04-21T15:35:33.102Z,23.50
2019-04-21T15:38:04.147Z,23.40
2019-04-21T15:40:41.776Z,23.30
2019-04-21T15:43:06.460Z,23.10
2019-04-21T15:45:37.073Z,23.10
2019-04-21T15:48:07.764Z,23.30
2019-04-21T15:50:37.874Z,23.40
2019-04-21T15:53:09.788Z,23.20
2019-04-21T15:55:50.830Z,23.00
2019-04-21T15:58:34.711Z,22.90
2019-04-21T16:01:12.324Z,22.90
2019-04-21T16:03:42.795Z,22.90
2019-04-21T16:06:13.834Z,23.00
2019-04-21T16:08:47.644Z,23.20
2019-04-21T16:11:15.826Z,23.30
2019-04-21T16:13:45.944Z,23.40
2019-04-21T16:16:16.721Z,23.50
2019-04-21T16:18:47.896Z,23.60
2019-04-21T16:21:18.149Z,23.70
2019-04-21T16:23:48.641Z,23.70
2019-04-21T16:26:20.235Z,23.60
2019-04-21T16:28:51.195Z,23.50
2019-04-21T16:31:22.521Z,23.60
2019-04-21T16:33:52.542Z,23.60
2019-04-21T16:36:23.320Z,23.70
2019-04-21T16:38:55.594Z,23.80
2019-04-21T16:41:26.476Z,23.70
2019-04-21T16:43:56.616Z,23.60
2019-04-21T16:46:27.466Z,23.10
2019-04-21T16:48:57.804Z,22.90
2019-04-21T16:51:28.508Z,23.00
2019-04-21T16:54:06.150Z,23.00
2019-04-21T16:56:43.933Z,23.10
2019-04-21T16:59:19.026Z,23.20
2019-04-21T17:01:52.501Z,23.10
2019-04-21T17:04:22.560Z,23.20
2019-04-21T17:06:53.300Z,23.20
2019-04-21T17:09:23.394Z,23.20
2019-04-21T17:11:58.051Z,23.10
2019-04-21T17:14:43.292Z,23.20
2019-04-21T17:17:17.875Z,23.20
2019-04-21T17:19:32.866Z,23.20
2019-04-21T17:22:01.753Z,23.20
2019-04-21T17:24:32.581Z,23.10
2019-04-21T17:27:02.912Z,23.10
2019-04-21T17:29:34.519Z,23.00
2019-04-21T17:32:07.746Z,22.80
2019-04-21T17:34:37.972Z,22.70
2019-04-21T17:37:08.836Z,22.40
2019-04-21T17:39:38.996Z,22.10
2019-04-21T17:42:25.491Z,21.70
2019-04-21T17:44:45.399Z,21.40
2019-04-21T17:47:22.681Z,21.20
2019-04-21T17:49:49.028Z,21.20
2019-04-21T17:52:48.165Z,21.10
2019-04-21T17:55:27.173Z,20.90
2019-04-21T17:58:10.339Z,20.60
2019-04-21T18:01:06.528Z,20.30
2019-04-21T18:03:27.308Z,20.10
2019-04-21T18:05:48.515Z,19.90
2019-04-21T18:08:22.970Z,19.70
2019-04-21T18:10:48.066Z,19.50
2019-04-21T18:13:11.559Z,19.30
2019-04-21T18:15:52.381Z,19.30
2019-04-21T18:18:08.440Z,19.10
2019-04-21T18:20:41.844Z,19.00
2019-04-21T18:23:39.497Z,18.80
2019-04-21T18:26:07.676Z,18.80
2019-04-21T18:28:33.098Z,18.80
2019-04-21T18:31:12.231Z,18.50
2019-04-21T18:34:02.174Z,18.40
2019-04-21T18:36:38.328Z,18.20
2019-04-21T18:39:38.121Z,18.10
2019-04-21T18:42:21.275Z,18.10
2019-04-21T18:45:34.288Z,18.00
2019-04-21T18:47:54.553Z,18.00
2019-04-21T18:50:40.357Z,18.00
2019-04-21T18:53:17.004Z,18.00
2019-04-21T18:55:45.353Z,17.90
2019-04-21T18:58:13.686Z,17.80
2019-04-21T19:00:45.328Z,17.80
2019-04-21T19:03:20.820Z,17.80
2019-04-21T19:05:53.190Z,17.80
2019-04-21T19:08:32.521Z,17.70
2019-04-21T19:11:10.310Z,17.60
2019-04-21T19:14:17.520Z,17.60
2019-04-21T19:19:33.044Z,17.40
2019-04-21T19:21:28.404Z,17.40
2019-04-21T19:24:10.265Z,17.30
2019-04-21T19:26:46.807Z,17.30
2019-04-21T19:29:12.527Z,17.10
2019-04-21T19:31:48.192Z,17.10
2019-04-21T19:34:03.509Z,17.10
2019-04-21T19:36:25.654Z,17.10
2019-04-21T19:39:03.898Z,17.00
2019-04-21T19:41:41.132Z,16.80
2019-04-21T19:44:20.607Z,16.80
2019-04-21T19:46:43.516Z,16.70
2019-04-21T19:49:26.701Z,16.60
2019-04-21T19:51:46.164Z,16.70
2019-04-21T19:54:17.875Z,16.60
2019-04-21T19:56:38.567Z,16.60
2019-04-21T19:59:11.846Z,16.50
2019-04-21T20:01:41.417Z,16.50
2019-04-21T20:04:12.447Z,16.50
2019-04-21T20:06:52.176Z,16.50
2019-04-21T20:09:32.161Z,16.40
2019-04-21T20:12:00.863Z,16.30
2019-04-21T20:14:49.256Z,16.20
2019-04-21T20:17:04.597Z,16.10
2019-04-21T20:19:22.537Z,16.10
2019-04-21T20:21:53.494Z,16.10
2019-04-21T20:24:28.309Z,16.10
2019-04-21T20:27:03.590Z,16.10
2019-04-21T20:29:44.554Z,16.00
2019-04-21T20:32:24.750Z,16.00
2019-04-21T20:34:56.153Z,16.00
2019-04-21T20:37:21.199Z,15.90
2019-04-21T20:39:46.318Z,15.80
2019-04-21T20:42:21.016Z,15.80
2019-04-21T20:45:16.145Z,15.80
2019-04-21T20:47:23.184Z,15.70
2019-04-21T20:50:01.741Z,15.60
2019-04-21T20:52:35.572Z,15.50
2019-04-21T20:55:02.202Z,15.40
2019-04-21T20:57:30.040Z,15.40
2019-04-21T21:00:09.136Z,15.40
2019-04-21T21:02:42.847Z,15.40
2019-04-21T21:05:02.944Z,15.40
2019-04-21T21:07:45.763Z,15.40
2019-04-21T21:10:17.901Z,15.40
2019-04-21T21:12:56.255Z,15.30
2019-04-21T21:15:10.102Z,15.40
2019-04-21T21:17:56.350Z,15.40
2019-04-21T21:20:29.498Z,15.50
2019-04-21T21:22:48.056Z,15.30
2019-04-21T21:25:38.352Z,15.30
2019-04-21T21:27:50.747Z,15.30
2019-04-21T21:30:24.609Z,15.30
2019-04-21T21:33:08.383Z,15.30
2019-04-21T21:35:26.115Z,15.30
2019-04-21T21:38:09.949Z,15.20
2019-04-21T21:40:31.669Z,15.10
2019-04-21T21:42:49.407Z,15.10
2019-04-21T21:45:25.148Z,15.00
2019-04-21T21:48:11.479Z,15.00
2019-04-21T21:50:38.651Z,15.00
2019-04-21T21:53:05.798Z,15.00
2019-04-21T21:55:32.298Z,15.10
2019-04-21T21:58:02.464Z,14.90
2019-04-21T22:00:36.951Z,15.00
2019-04-21T22:03:16.296Z,14.90
2019-04-21T22:05:48.226Z,14.90
2019-04-21T22:08:07.859Z,14.90
2019-04-21T22:10:39.081Z,14.90
2019-04-21T22:13:14.357Z,14.90
2019-04-21T22:15:41.634Z,14.80
2019-04-21T22:18:28.809Z,14.70
2019-04-21T22:20:57.681Z,14.60
2019-04-21T22:23:26.006Z,14.50
2019-04-21T22:25:47.535Z,14.50
2019-04-21T22:28:17.806Z,14.60
2019-04-21T22:30:51.235Z,14.60
2019-04-21T22:33:21.721Z,14.60
2019-04-21T22:36:00.423Z,14.60
2019-04-21T22:38:40.201Z,14.60
2019-04-21T22:41:04.647Z,14.60
2019-04-21T22:43:32.898Z,14.60
2019-04-21T22:45:59.089Z,14.40
2019-04-21T22:48:30.667Z,14.40
2019-04-21T22:51:05.977Z,14.40
2019-04-21T22:53:41.311Z,14.30
2019-04-21T22:56:14.899Z,14.20
2019-04-21T22:58:42.247Z,14.20
2019-04-21T23:01:11.007Z,14.20
2019-04-21T23:03:50.259Z,14.30
2019-04-21T23:06:19.195Z,14.20
2019-04-21T23:08:46.164Z,14.20
2019-04-21T23:11:17.850Z,14.20
2019-04-21T23:13:53.789Z,14.10
2019-04-21T23:16:26.072Z,14.10
2019-04-21T23:19:11.449Z,14.00
2019-04-21T23:21:42.592Z,14.00
2019-04-21T23:24:08.755Z,14.00
2019-04-21T23:26:43.577Z,13.90
2019-04-21T23:29:17.396Z,13.90
2019-04-21T23:31:50.214Z,13.80
2019-04-21T23:34:02.349Z,13.90
2019-04-21T23:36:35.255Z,13.90
2019-04-21T23:39:12.601Z,13.80
2019-04-21T23:41:45.169Z,13.80
2019-04-21T23:44:12.179Z,13.80
2019-04-21T23:46:40.911Z,13.80
2019-04-21T23:49:22.884Z,13.80
2019-04-21T23:51:50.588Z,13.80
2019-04-21T23:54:15.585Z,13.80
2019-04-21T23:56:47.772Z,13.80
2019-04-21T23:59:18.010Z,13.80
